Time;durP1;ratioP1;P1;durP2;ratioP2;P2;SDS_P1;SDS_P2;PMS_P1;PMS_P2;Temp;Humidity;BMP_temperature;BMP_pressure;BME280_temperature;BME280_humidity;BME280_pressure;Samples;Min_cycle;Max_cycle;Signal;HPM_P1;HPM_P2
2022/06/14 00:00:56;;;;;;;3.15;2.10;;;;;;;16.03;70.98;96056.53;5079254;28;20079;-62
2022/06/14 00:03:33;;;;;;;3.20;2.13;;;;;;;15.94;71.85;96052.25;5075425;28;20027;-63
2022/06/14 00:06:01;;;;;;;2.28;2.00;;;;;;;15.82;71.91;96051.72;5073465;28;20032;-63
2022/06/14 00:08:28;;;;;;;5.15;1.92;;;;;;;15.78;72.26;96051.22;5079885;28;20024;-63
2022/06/14 00:10:56;;;;;;;4.63;1.83;;;;;;;15.73;72.09;96051.69;5078521;28;20131;-62
2022/06/14 00:13:23;;;;;;;3.47;2.00;;;;;;;15.70;71.98;96046.72;5078336;28;20111;-63
2022/06/14 00:15:49;;;;;;;2.33;1.92;;;;;;;15.67;72.04;96036.44;5078914;28;20047;-62
2022/06/14 00:18:16;;;;;;;4.63;2.15;;;;;;;15.63;72.91;96051.03;5077269;28;20024;-63
2022/06/14 00:20:43;;;;;;;2.40;2.20;;;;;;;15.66;73.22;96045.41;5084764;28;20032;-63
2022/06/14 00:23:09;;;;;;;3.03;2.20;;;;;;;15.62;72.58;96049.38;5082190;28;20100;-63
2022/06/14 00:25:39;;;;;;;4.80;2.30;;;;;;;15.61;72.82;96047.72;5080193;28;20048;-63
2022/06/14 00:28:06;;;;;;;4.53;2.15;;;;;;;15.62;72.51;96049.38;5076958;28;20020;-62
2022/06/14 00:30:32;;;;;;;12.70;4.97;;;;;;;15.70;72.22;96049.38;5080779;28;20491;-63
2022/06/14 00:32:58;;;;;;;3.67;2.13;;;;;;;15.66;72.26;96050.72;5076022;28;20039;-62
2022/06/14 00:35:24;;;;;;;3.20;2.22;;;;;;;15.57;73.13;96044.56;5081318;28;20020;-62
2022/06/14 00:37:49;;;;;;;3.67;2.50;;;;;;;15.58;71.82;96042.72;5082220;28;20031;-62
2022/06/14 00:40:18;;;;;;;3.00;2.28;;;;;;;15.51;72.00;96039.94;5080369;28;20056;-62
2022/06/14 00:42:44;;;;;;;5.38;2.30;;;;;;;15.51;73.09;96041.72;5086230;28;20035;-62
2022/06/14 00:45:12;;;;;;;2.85;2.20;;;;;;;15.52;72.88;96044.22;5081847;28;20024;-62
2022/06/14 00:47:58;;;;;;;2.13;1.92;;;;;;;15.43;73.31;96035.44;5084887;28;20043;-62
2022/06/14 00:50:38;;;;;;;3.55;2.20;;;;;;;15.35;73.27;96038.06;5078686;28;20467;-62
2022/06/14 00:53:09;;;;;;;4.28;2.90;;;;;;;15.39;73.29;96035.91;5085008;28;20402;-62
2022/06/14 00:55:44;;;;;;;5.13;2.35;;;;;;;15.39;72.49;96026.16;5070764;28;20524;-62
2022/06/14 00:58:16;;;;;;;2.38;2.13;;;;;;;15.38;72.60;96031.59;5082222;28;20027;-62
2022/06/14 01:00:54;;;;;;;2.63;2.10;;;;;;;15.37;72.65;96030.78;5076655;28;20479;-62
2022/06/14 01:03:23;;;;;;;2.97;2.17;;;;;;;15.35;72.34;96040.72;5075854;28;20020;-62
2022/06/14 01:06:05;;;;;;;3.08;2.53;;;;;;;15.32;73.50;96030.44;5076002;28;20033;-62
2022/06/14 01:08:31;;;;;;;3.28;1.98;;;;;;;15.29;72.66;96025.44;5084892;28;20073;-62
2022/06/14 01:10:56;;;;;;;2.90;2.40;;;;;;;15.26;72.67;96028.44;5072753;28;20475;-61
2022/06/14 01:13:23;;;;;;;4.53;1.88;;;;;;;15.14;73.19;96023.47;5083205;28;20020;-62
2022/06/14 01:15:50;;;;;;;2.25;2.15;;;;;;;15.04;73.16;96026.25;5084750;28;20052;-62
2022/06/14 01:18:16;;;;;;;2.33;2.10;;;;;;;15.01;72.57;96021.25;5080409;28;20130;-62
2022/06/14 01:20:43;;;;;;;2.40;2.10;;;;;;;14.97;72.62;96025.22;5078949;28;20048;-62
2022/06/14 01:23:12;;;;;;;2.13;2.00;;;;;;;15.02;72.87;96024.75;5076578;28;20048;-62
2022/06/14 01:25:45;;;;;;;3.13;2.00;;;;;;;15.02;74.03;96022.91;5084462;28;20032;-62
2022/06/14 01:28:13;;;;;;;3.90;2.90;;;;;;;15.02;73.29;96022.91;5081177;28;20028;-61
2022/06/14 01:30:45;;;;;;;2.30;2.20;;;;;;;15.02;73.51;96025.56;5077706;28;20035;-62
2022/06/14 01:33:15;;;;;;;4.70;2.60;;;;;;;14.96;74.42;96023.56;5078686;28;20032;-61
2022/06/14 01:35:44;;;;;;;4.90;2.45;;;;;;;14.95;73.98;96021.91;5078114;28;20511;-62
2022/06/14 01:38:13;;;;;;;6.65;2.67;;;;;;;14.91;73.77;96023.22;5072254;28;20027;-61
2022/06/14 01:40:59;;;;;;;2.65;2.10;;;;;;;14.84;74.80;96020.38;5071769;28;20028;-62
2022/06/14 01:43:57;;;;;;;2.50;2.30;;;;;;;14.83;75.09;96017.91;5083856;28;20024;-61
2022/06/14 01:46:24;;;;;;;2.55;2.10;;;;;;;14.83;74.33;96024.00;5083145;28;20016;-61
2022/06/14 01:48:49;;;;;;;3.10;2.78;;;;;;;14.75;75.05;96021.34;5076388;28;20048;-62
2022/06/14 01:54:25;;;;;;;2.53;2.25;;;;;;;14.55;75.55;96018.91;5082829;28;20030;-62
2022/06/14 01:57:08;;;;;;;5.57;2.05;;;;;;;14.52;76.05;96015.75;5079913;28;20043;-61
2022/06/14 01:59:51;;;;;;;2.20;1.90;;;;;;;14.48;74.57;96015.25;5081234;28;20028;-61
2022/06/14 02:02:22;;;;;;;3.72;2.00;;;;;;;14.45;74.30;96015.53;5083102;28;20067;-61
2022/06/14 02:05:08;;;;;;;2.50;1.90;;;;;;;14.46;74.20;96017.19;5080780;28;20040;-61
2022/06/14 02:07:33;;;;;;;3.10;1.90;;;;;;;14.46;74.16;96022.50;5076283;28;20486;-61
2022/06/14 02:10:20;;;;;;;2.20;1.75;;;;;;;14.47;74.73;96019.69;5079743;28;20020;-61
2022/06/14 02:13:04;;;;;;;2.50;2.30;;;;;;;14.36;76.58;96027.09;5082631;28;20052;-61
2022/06/14 02:15:50;;;;;;;3.72;2.10;;;;;;;14.32;76.48;96019.47;5072470;28;20039;-61
2022/06/14 02:18:21;;;;;;;5.78;2.20;;;;;;;14.29;77.10;96017.13;5084944;28;20028;-67
2022/06/14 02:20:59;;;;;;;2.40;2.22;;;;;;;14.28;77.57;96018.13;5080637;28;20059;-67
2022/06/14 02:23:27;;;;;;;7.63;2.80;;;;;;;14.24;79.10;96021.25;5084964;28;20052;-67
2022/06/14 02:25:58;;;;;;;1.95;1.85;;;;;;;14.12;79.73;96015.38;5085093;28;20059;-68
2022/06/14 02:28:36;;;;;;;4.50;2.10;;;;;;;14.03;78.91;96025.91;5065183;28;20086;-67
2022/06/14 02:31:30;;;;;;;4.07;2.40;;;;;;;13.98;79.42;96017.59;5068639;28;20020;-67
2022/06/14 02:34:03;;;;;;;4.22;2.20;;;;;;;14.07;78.35;96021.13;5080655;28;20070;-68
2022/06/14 02:36:38;;;;;;;2.35;2.17;;;;;;;14.04;78.52;96022.28;5069823;28;20385;-68
2022/06/14 02:39:11;;;;;;;2.90;2.47;;;;;;;14.00;79.81;96018.25;5077732;28;20078;-68
2022/06/14 02:41:49;;;;;;;4.82;2.53;;;;;;;13.97;78.79;96018.59;5078706;28;20032;-68
2022/06/14 02:44:22;;;;;;;3.30;2.03;;;;;;;14.02;78.02;96015.47;5077828;28;20037;-68
2022/06/14 02:46:55;;;;;;;2.45;2.25;;;;;;;13.98;77.38;96020.25;5080104;28;20031;-68
2022/06/14 02:49:47;;;;;;;3.47;2.22;;;;;;;14.01;77.17;96019.13;5075615;28;20024;-68
2022/06/14 02:52:30;;;;;;;2.70;2.13;;;;;;;14.01;77.35;96025.22;5075174;28;20487;-68
2022/06/14 02:54:56;;;;;;;5.70;2.10;;;;;;;13.99;78.03;96031.69;5078723;28;20114;-68
2022/06/14 02:57:52;;;;;;;3.47;2.33;;;;;;;14.03;78.13;96025.91;5086397;28;20493;-69
2022/06/14 03:00:26;;;;;;;1.95;1.85;;;;;;;13.98;79.13;96019.44;5080752;28;20024;-68
2022/06/14 03:03:07;;;;;;;2.42;2.20;;;;;;;13.91;79.28;96024.50;5072153;28;20028;-68
2022/06/14 03:05:37;;;;;;;4.32;2.58;;;;;;;13.83;79.23;96025.28;5077672;28;20035;-68
2022/06/14 03:08:11;;;;;;;11.77;2.40;;;;;;;13.79;79.74;96023.91;5088241;28;20110;-68
2022/06/14 03:11:08;;;;;;;2.58;2.40;;;;;;;13.81;78.22;96014.00;5092469;28;20039;-68
2022/06/14 03:13:59;;;;;;;2.28;2.10;;;;;;;13.78;78.39;96009.03;5070173;28;20406;-67
2022/06/14 03:16:31;;;;;;;2.47;2.28;;;;;;;13.72;79.10;96012.31;5081378;28;20099;-67
2022/06/14 03:19:19;;;;;;;2.55;2.20;;;;;;;13.66;79.59;96012.91;5082609;28;20044;-67
2022/06/14 03:21:54;;;;;;;3.33;2.33;;;;;;;13.68;79.55;96016.22;5077824;28;20104;-69
2022/06/14 03:24:41;;;;;;;2.53;2.33;;;;;;;13.60;79.84;96020.47;5085455;28;20518;-69
2022/06/14 03:27:28;;;;;;;3.10;2.28;;;;;;;13.61;80.03;96014.19;5085576;28;20032;-69
2022/06/14 03:30:00;;;;;;;3.53;2.20;;;;;;;13.61;80.17;96018.66;5084635;28;20020;-69
2022/06/14 03:32:45;;;;;;;3.13;2.25;;;;;;;13.55;80.35;96021.91;5081015;28;20247;-69
2022/06/14 03:35:31;;;;;;;;;;;;;;;13.53;80.07;96011.50;5078487;28;20057;-69
2022/06/14 03:38:03;;;;;;;2.60;2.22;;;;;;;13.48;80.22;96011.09;5058278;28;20302;-69
2022/06/14 03:40:29;;;;;;;2.53;2.30;;;;;;;13.53;80.17;96010.63;5073012;28;20028;-69
2022/06/14 03:42:54;;;;;;;2.63;2.40;;;;;;;13.46;80.90;96015.72;5076861;28;20521;-69
2022/06/14 03:45:28;;;;;;;3.67;2.20;;;;;;;13.38;80.80;96003.22;5073838;28;20025;-70
2022/06/14 03:47:53;;;;;;;2.58;2.38;;;;;;;13.29;81.65;96012.91;5073974;28;20028;-69
2022/06/14 03:50:26;;;;;;;3.00;2.17;;;;;;;13.34;81.63;96004.50;5078703;28;20048;-69
2022/06/14 03:53:35;;;;;;;8.82;2.40;;;;;;;13.35;81.51;95992.94;5085357;28;20028;-69
2022/06/14 03:56:21;;;;;;;4.22;2.55;;;;;;;13.37;81.30;96000.72;5016970;28;20041;-68
2022/06/14 03:58:46;;;;;;;3.13;2.40;;;;;;;13.37;81.69;96004.19;5025681;28;20091;-60
2022/06/14 04:01:18;;;;;;;2.70;2.50;;;;;;;13.38;81.52;96013.81;5063419;28;20044;-60
2022/06/14 04:04:14;;;;;;;2.90;2.70;;;;;;;13.32;82.07;96011.75;5088564;28;20513;-60
2022/06/14 04:07:04;;;;;;;6.53;2.33;;;;;;;13.26;82.71;96010.56;5091516;28;20494;-61
2022/06/14 04:09:51;;;;;;;3.25;2.90;;;;;;;13.31;82.50;96023.31;5083688;28;20105;-60
2022/06/14 04:12:25;;;;;;;2.78;2.58;;;;;;;13.35;82.70;96027.31;5091650;28;20031;-60
2022/06/14 04:15:09;;;;;;;3.85;2.75;;;;;;;13.27;83.62;96027.25;5091993;28;20032;-59
2022/06/14 04:17:57;;;;;;;2.65;2.45;;;;;;;13.24;83.69;96028.38;5090153;28;20049;-60
2022/06/14 04:20:33;;;;;;;4.20;2.40;;;;;;;13.27;83.19;96028.09;5082778;28;20398;-60
2022/06/14 04:23:10;;;;;;;3.40;2.30;;;;;;;13.27;84.03;96027.25;5091428;28;20044;-59
2022/06/14 04:25:57;;;;;;;3.25;2.95;;;;;;;13.29;83.16;96031.41;5084894;28;20518;-61
2022/06/14 04:28:49;;;;;;;3.05;2.55;;;;;;;13.34;83.23;96028.28;5090611;28;20028;-60
2022/06/14 04:31:24;;;;;;;2.92;2.65;;;;;;;13.29;83.36;96034.06;5090706;28;20051;-60
2022/06/14 04:34:16;;;;;;;2.85;2.42;;;;;;;13.37;83.04;96037.75;5086606;28;20028;-60
2022/06/14 04:36:47;;;;;;;3.80;3.05;;;;;;;13.36;83.38;96036.09;5090036;28;20032;-60
2022/06/14 04:39:22;;;;;;;16.13;3.05;;;;;;;13.38;83.39;96040.25;5090234;28;20024;-61
2022/06/14 04:42:08;;;;;;;5.25;2.80;;;;;;;13.36;84.12;96036.91;5090377;28;20035;-61
2022/06/14 04:44:39;;;;;;;7.93;3.00;;;;;;;13.32;84.37;96036.41;5091278;28;20406;-61
2022/06/14 04:47:14;;;;;;;4.20;2.55;;;;;;;13.28;85.80;96034.19;5089946;28;20519;-61
2022/06/14 04:49:48;;;;;;;3.57;2.63;;;;;;;13.28;85.56;96042.13;5088454;28;20024;-61
2022/06/14 04:52:42;;;;;;;3.33;2.63;;;;;;;13.29;85.69;96049.91;5080225;28;20083;-60
2022/06/14 04:55:23;;;;;;;2.90;2.70;;;;;;;13.33;85.07;96045.16;5086004;28;20032;-60
2022/06/14 04:58:07;;;;;;;3.40;2.80;;;;;;;13.37;84.96;96043.03;5091246;28;20027;-61
2022/06/14 05:00:37;;;;;;;4.97;2.85;;;;;;;13.38;85.28;96050.84;5079413;28;20052;-60
2022/06/14 05:03:25;;;;;;;4.28;3.03;;;;;;;13.41;86.64;96047.03;5091224;28;20032;-60
2022/06/14 05:06:00;;;;;;;4.40;3.13;;;;;;;13.52;87.12;96046.84;5088721;28;20032;-61
2022/06/14 05:08:33;;;;;;;3.08;2.88;;;;;;;13.67;86.43;96049.78;5086806;28;20392;-61
2022/06/14 05:11:20;;;;;;;6.10;3.58;;;;;;;13.94;85.30;96047.19;5080529;28;20498;-61
2022/06/14 05:14:06;;;;;;;6.30;4.10;;;;;;;14.15;84.14;96049.47;5090446;28;20475;-59
2022/06/14 05:16:40;;;;;;;4.20;3.90;;;;;;;14.29;83.98;96040.13;5090854;28;20414;-60
2022/06/14 05:19:26;;;;;;;5.10;3.55;;;;;;;14.43;83.47;96047.50;5090355;28;20483;-60
2022/06/14 05:22:03;;;;;;;4.05;3.42;;;;;;;14.58;83.13;96046.88;5083323;28;20828;-60
2022/06/14 05:24:30;;;;;;;5.15;3.85;;;;;;;14.76;81.55;96046.84;5081249;28;20051;-60
2022/06/14 05:27:10;;;;;;;6.97;3.95;;;;;;;14.86;81.09;96049.38;5075642;28;20419;-60
2022/06/14 05:29:38;;;;;;;4.15;3.25;;;;;;;14.96;80.52;96050.06;5085638;28;20020;-61
2022/06/14 05:32:36;;;;;;;5.82;3.80;;;;;;;15.07;80.06;96045.47;5086852;28;20028;-59
2022/06/14 05:35:23;;;;;;;7.25;2.70;;;;;;;15.18;78.74;96048.66;5042142;28;20048;-59
2022/06/14 05:38:11;;;;;;;4.32;3.42;;;;;;;15.27;79.01;96054.81;5083737;28;20028;-60
2022/06/14 05:40:50;;;;;;;4.47;2.63;;;;;;;15.37;77.74;96052.00;5090235;28;20027;-58
2022/06/14 05:43:25;;;;;;;4.90;2.78;;;;;;;15.48;78.67;96050.88;5089987;28;20534;-59
2022/06/14 05:46:04;;;;;;;2.92;2.60;;;;;;;15.55;78.87;96046.56;5085435;28;20088;-60
2022/06/14 05:48:34;;;;;;;3.08;2.83;;;;;;;15.69;77.25;96053.03;5089513;28;20433;-62
2022/06/14 05:51:01;;;;;;;5.80;2.83;;;;;;;15.77;76.51;96052.22;5085022;28;20036;-61
2022/06/14 05:53:38;;;;;;;5.35;2.90;;;;;;;15.91;75.80;96048.09;5078291;28;20032;-62
2022/06/14 05:56:31;;;;;;;2.95;2.60;;;;;;;16.00;76.73;96054.22;5076434;28;20095;-60
2022/06/14 05:59:46;;;;;;;5.32;2.60;;;;;;;16.16;76.59;96051.56;5079822;28;20058;-60
2022/06/14 06:02:19;;;;;;;3.53;2.63;;;;;;;16.31;76.34;96043.72;5023956;28;20068;-61
2022/06/14 06:04:55;;;;;;;3.67;2.38;;;;;;;16.53;74.72;96051.97;5023191;28;20420;-60
2022/06/14 06:07:30;;;;;;;4.60;2.30;;;;;;;16.70;74.33;96055.41;5064849;28;20110;-62
2022/06/14 06:10:10;;;;;;;6.82;2.72;;;;;;;16.87;74.66;96052.69;5088321;28;20070;-60
2022/06/14 06:12:41;;;;;;;4.88;2.60;;;;;;;16.99;74.01;96053.16;5088023;28;20110;-61
2022/06/14 06:15:20;;;;;;;2.90;2.60;;;;;;;17.24;72.06;96053.03;5085362;28;20081;-60
2022/06/14 06:17:51;;;;;;;3.72;2.53;;;;;;;17.36;69.76;96049.00;5085822;28;20024;-60
2022/06/14 06:20:45;;;;;;;2.42;2.28;;;;;;;17.44;69.90;96048.94;5085948;28;20541;-60
2022/06/14 06:23:17;;;;;;;2.95;2.17;;;;;;;17.60;68.57;96049.81;5089505;28;20044;-62
2022/06/14 06:25:50;;;;;;;5.03;2.10;;;;;;;17.80;67.69;96042.19;5089511;28;20403;-62
2022/06/14 06:28:28;;;;;;;2.67;2.17;;;;;;;17.97;67.00;96042.84;5089382;28;20020;-61
2022/06/14 06:31:04;;;;;;;2.13;1.92;;;;;;;18.18;65.44;96044.03;5085471;28;20032;-62
2022/06/14 06:33:34;;;;;;;3.17;2.70;;;;;;;18.38;65.23;96041.69;5067427;28;20040;-62
2022/06/14 06:36:09;;;;;;;4.13;2.30;;;;;;;18.79;64.81;96032.41;5076361;28;20108;-61
2022/06/14 06:38:46;;;;;;;2.00;1.90;;;;;;;19.23;61.83;96028.03;5068737;28;20483;-62
2022/06/14 06:44:06;;;;;;;3.17;2.33;;;;;;;19.96;60.61;96021.75;5074095;28;20123;-62
2022/06/14 06:46:37;;;;;;;2.97;2.22;;;;;;;20.41;59.05;96020.63;5090924;28;20647;-62
2022/06/14 06:49:07;;;;;;;2.28;2.00;;;;;;;20.85;56.27;96032.03;5083660;28;20359;-61
2022/06/14 06:51:47;;;;;;;1.77;1.67;;;;;;;21.18;53.60;96021.47;5091705;28;20411;-61
2022/06/14 06:54:35;;;;;;;2.95;2.08;;;;;;;21.50;54.02;96022.75;5084653;28;20135;-61
2022/06/14 06:57:03;;;;;;;2.17;2.00;;;;;;;22.28;51.64;96019.53;5088720;28;20040;-61
2022/06/14 06:59:34;;;;;;;2.00;1.67;;;;;;;;;;5082916;28;20097;-61
2022/06/14 07:02:04;;;;;;;2.85;2.00;;;;;;;22.45;48.35;96014.56;5086915;28;20043;-61
2022/06/14 07:07:36;;;;;;;2.13;1.88;;;;;;;22.93;47.03;96015.28;5081614;28;20066;-61
2022/06/14 07:10:16;;;;;;;2.80;1.60;;;;;;;23.01;44.98;96011.53;5090255;28;20031;-62
2022/06/14 07:12:50;;;;;;;6.25;1.83;;;;;;;23.31;44.05;96005.63;5083269;28;20043;-62
2022/06/14 07:15:18;;;;;;;3.97;1.77;;;;;;;23.53;44.09;96010.66;5088727;28;20074;-62
2022/06/14 07:17:53;;;;;;;1.73;1.63;;;;;;;23.61;43.15;96000.50;5084653;28;20098;-63
2022/06/14 07:20:44;;;;;;;2.20;1.98;;;;;;;23.82;42.21;96006.53;5091017;28;20050;-62
2022/06/14 07:23:21;;;;;;;2.05;1.83;;;;;;;23.97;42.30;96002.72;5092357;28;20044;-63
2022/06/14 07:25:59;;;;;;;2.35;1.38;;;;;;;23.87;41.61;95997.84;5089296;28;20035;-63
2022/06/14 07:28:34;;;;;;;1.75;1.65;;;;;;;24.41;41.58;96008.13;5082435;28;20028;-62
2022/06/14 07:31:05;;;;;;;3.22;1.40;;;;;;;24.26;39.63;96009.34;5083154;28;20702;-63
2022/06/14 07:33:31;;;;;;;2.50;1.77;;;;;;;24.29;39.58;96011.56;5088776;28;20028;-63
2022/06/14 07:36:00;;;;;;;1.70;1.60;;;;;;;24.17;42.52;96002.56;5077773;28;20407;-62
2022/06/14 07:38:25;;;;;;;1.85;1.40;;;;;;;24.60;39.31;96009.00;5085669;28;20502;-63
2022/06/14 07:41:19;;;;;;;2.60;1.83;;;;;;;24.81;41.10;96015.03;5089546;28;20028;-63
2022/06/14 07:44:08;;;;;;;1.15;1.15;;;;;;;24.98;37.99;96004.47;5087841;28;20506;-63
2022/06/14 07:46:48;;;;;;;4.57;1.73;;;;;;;24.90;38.37;96005.59;5082067;28;20045;-63
2022/06/14 07:49:19;;;;;;;1.63;1.30;;;;;;;25.05;38.51;96007.06;5081670;28;20076;-63
2022/06/14 07:51:51;;;;;;;4.43;1.95;;;;;;;25.83;36.58;95993.78;5080252;28;20036;-63
2022/06/14 07:54:21;;;;;;;3.55;1.45;;;;;;;25.83;36.48;96001.88;5085601;28;20024;-63
2022/06/14 07:57:02;;;;;;;1.45;1.35;;;;;;;26.13;35.30;95992.88;5083274;28;20024;-63
2022/06/14 07:59:34;;;;;;;1.58;1.40;;;;;;;25.82;36.93;95992.94;5077967;28;20024;-62
2022/06/14 08:02:24;;;;;;;1.50;1.33;;;;;;;25.97;36.80;95983.59;5077358;28;20036;-63
2022/06/14 08:04:50;;;;;;;1.83;1.30;;;;;;;25.74;36.84;95986.00;5084623;28;20028;-63
2022/06/14 08:07:18;;;;;;;2.10;1.63;;;;;;;25.97;34.85;95989.81;5088259;28;20091;-63
2022/06/14 08:10:08;;;;;;;1.67;1.58;;;;;;;26.13;36.06;95987.47;5081083;28;20282;-63
2022/06/14 08:12:36;;;;;;;2.22;1.60;;;;;;;25.86;36.01;95986.06;5086839;28;20024;-63
2022/06/14 08:15:10;;;;;;;2.70;1.58;;;;;;;26.21;34.13;95979.09;5079529;28;20032;-63
2022/06/14 08:17:51;;;;;;;2.17;1.70;;;;;;;26.53;35.10;95977.91;5078535;28;20026;-63
2022/06/14 08:20:26;;;;;;;1.90;1.38;;;;;;;27.02;34.18;95970.28;5071370;28;20024;-64
2022/06/14 08:22:57;;;;;;;1.60;1.50;;;;;;;26.81;33.64;95968.22;5083620;28;20048;-63
2022/06/14 08:25:28;;;;;;;2.92;1.70;;;;;;;27.02;34.71;95964.88;5079821;28;20028;-63
2022/06/14 08:28:02;;;;;;;2.28;1.70;;;;;;;27.34;34.54;95966.28;5091208;28;20055;-63
2022/06/14 08:30:36;;;;;;;1.60;1.50;;;;;;;27.21;34.62;95956.59;5090292;28;20036;-63
2022/06/14 08:33:05;;;;;;;1.73;1.63;;;;;;;26.70;38.63;95959.06;5069004;28;20511;-62
2022/06/14 08:35:37;;;;;;;2.03;1.80;;;;;;;26.95;36.12;95955.28;5084732;28;20044;-63
2022/06/14 08:38:41;;;;;;;2.00;1.90;;;;;;;26.78;37.19;95947.91;5084734;28;20024;-63
2022/06/14 08:41:44;;;;;;;3.00;1.70;;;;;;;27.54;35.23;95948.84;5025286;28;20029;-63
2022/06/14 08:44:33;;;;;;;2.75;1.75;;;;;;;27.66;33.82;95957.69;5084721;28;20035;-63
2022/06/14 08:46:58;;;;;;;4.78;1.60;;;;;;;27.40;34.38;95948.25;5079358;28;20085;-63
2022/06/14 08:49:29;;;;;;;1.55;1.25;;;;;;;28.01;33.09;95944.97;5087710;28;20032;-63
2022/06/14 08:52:20;;;;;;;2.85;1.60;;;;;;;27.69;35.52;95943.66;5084467;28;20051;-63
2022/06/14 08:54:56;;;;;;;2.17;1.70;;;;;;;27.90;35.52;95949.41;5086710;28;20032;-63
2022/06/14 08:57:21;;;;;;;1.45;1.45;;;;;;;28.39;34.41;95943.41;5088324;28;20032;-63
2022/06/14 09:00:08;;;;;;;1.77;1.67;;;;;;;27.96;34.00;95944.91;5087970;28;20024;-63
2022/06/14 09:02:43;;;;;;;1.88;1.30;;;;;;;28.18;33.02;95947.69;5067632;28;20293;-62
2022/06/14 09:05:20;;;;;;;;;;;;;;;27.69;36.08;95943.66;5066590;28;20040;-63
2022/06/14 09:07:54;;;;;;;3.28;1.80;;;;;;;28.45;33.18;95938.88;5081252;28;19923;-63
2022/06/14 09:10:46;;;;;;;1.75;1.48;;;;;;;29.09;33.27;95936.69;5083609;28;20034;-63
2022/06/14 09:13:17;;;;;;;2.35;1.80;;;;;;;29.26;32.92;95928.44;5086081;28;20067;-63
2022/06/14 09:15:58;;;;;;;3.53;2.05;;;;;;;28.46;32.59;95932.38;5086679;28;20036;-62
2022/06/14 09:18:55;;;;;;;2.00;1.80;;;;;;;28.29;35.08;95922.41;5084844;28;20049;-62
2022/06/14 09:21:33;;;;;;;2.60;1.92;;;;;;;27.67;35.85;95921.47;5085934;28;20028;-63
2022/06/14 09:24:19;;;;;;;1.95;1.65;;;;;;;27.94;36.18;95920.78;5089743;28;20141;-62
2022/06/14 09:27:13;;;;;;;4.80;1.90;;;;;;;28.21;36.94;95930.13;5089978;28;20110;-63
2022/06/14 09:30:16;;;;;;;1.90;1.50;;;;;;;28.62;34.83;95913.63;5078263;28;20127;-63
2022/06/14 09:35:49;;;;;;;3.08;1.58;;;;;;;29.38;34.43;95915.56;5085537;28;20501;-63
2022/06/14 09:38:52;;;;;;;1.67;1.58;;;;;;;29.61;34.20;95904.66;5088267;28;20101;-63
2022/06/14 09:41:32;;;;;;;3.15;1.73;;;;;;;29.85;32.91;95907.84;5086238;28;20032;-63
2022/06/14 09:44:16;;;;;;;1.98;1.88;;;;;;;30.36;32.80;95907.38;5087703;28;20057;-63
2022/06/14 09:47:21;;;;;;;2.05;1.85;;;;;;;29.73;32.71;95898.00;5079119;28;20031;-63
2022/06/14 09:50:17;;;;;;;3.92;1.40;;;;;;;29.72;34.23;95898.25;5085502;28;20039;-63
2022/06/14 09:52:53;;;;;;;2.25;2.10;;;;;;;29.84;32.54;95896.19;5087370;28;20035;-63
2022/06/14 09:55:30;;;;;;;3.33;1.83;;;;;;;30.02;32.66;95894.97;5084661;28;20059;-63
2022/06/14 09:58:14;;;;;;;1.90;1.80;;;;;;;29.23;34.64;95885.59;5087472;28;20103;-63
2022/06/14 10:00:58;;;;;;;3.72;1.92;;;;;;;28.95;34.81;95891.00;5078257;28;20028;-64
2022/06/14 10:03:59;;;;;;;;;;;;;;;29.43;33.36;95880.38;5086502;28;20036;-63
2022/06/14 10:06:58;;;;;;;2.90;2.00;;;;;;;30.09;32.92;95885.78;5003031;28;20646;-63
2022/06/14 10:09:51;;;;;;;2.38;1.90;;;;;;;30.20;32.54;95881.22;5085776;28;20027;-63
2022/06/14 10:12:18;;;;;;;2.10;1.88;;;;;;;30.34;32.60;95866.09;5088832;28;20027;-63
2022/06/14 10:15:05;;;;;;;3.97;2.00;;;;;;;30.44;32.80;95877.00;5088906;28;20414;-64
2022/06/14 10:17:41;;;;;;;2.47;1.98;;;;;;;30.66;31.60;95869.78;5089268;28;20032;-63
2022/06/14 10:20:24;;;;;;;2.15;1.90;;;;;;;30.86;31.64;95872.56;5089074;28;20097;-63
2022/06/14 10:22:56;;;;;;;2.57;2.13;;;;;;;30.82;32.58;95871.44;5074923;28;20040;-63
2022/06/14 10:28:57;;;;;;;1.77;1.67;;;;;;;30.40;33.83;95866.94;5078372;28;20035;-64
2022/06/14 10:31:50;;;;;;;2.30;1.88;;;;;;;30.53;32.07;95863.72;5087784;28;20017;-63
2022/06/14 10:34:39;;;;;;;2.38;1.70;;;;;;;30.40;32.01;95864.22;5089074;28;20066;-64
2022/06/14 10:37:14;;;;;;;2.70;1.60;;;;;;;31.31;31.61;95863.97;5089013;28;20063;-64
2022/06/14 10:39:58;;;;;;;4.10;1.60;;;;;;;30.82;33.49;95873.38;5084392;28;20078;-64
2022/06/14 10:42:34;;;;;;;2.05;1.73;;;;;;;31.12;31.46;95875.34;5087244;28;20032;-64
2022/06/14 10:45:05;;;;;;;2.17;1.98;;;;;;;30.39;33.42;95862.56;5082416;28;20035;-61
2022/06/14 10:47:46;;;;;;;2.53;2.00;;;;;;;30.94;32.23;95867.69;5084974;28;20028;-61
2022/06/14 10:50:45;;;;;;;2.28;1.70;;;;;;;31.25;31.96;95870.47;5084131;28;20082;-61
2022/06/14 10:53:13;;;;;;;5.15;1.65;;;;;;;31.15;32.09;95869.34;5085756;28;20072;-61
2022/06/14 10:56:00;;;;;;;2.60;1.70;;;;;;;32.17;30.16;95870.72;5087511;28;20040;-61
2022/06/14 10:58:25;;;;;;;2.28;1.70;;;;;;;31.79;29.09;95871.06;5087426;28;20024;-60
2022/06/14 11:01:02;;;;;;;1.92;1.70;;;;;;;31.49;31.48;95872.66;5086883;28;20032;-62
2022/06/14 11:03:38;;;;;;;3.53;2.10;;;;;;;31.59;31.34;95870.75;5088854;28;20036;-62
2022/06/14 11:06:24;;;;;;;2.10;1.67;;;;;;;31.24;31.02;95858.81;5088662;28;20027;-62
2022/06/14 11:09:08;;;;;;;1.70;1.60;;;;;;;31.37;30.98;95864.78;5082638;28;20032;-61
2022/06/14 11:11:39;;;;;;;2.20;1.80;;;;;;;31.41;30.01;95855.81;5073876;28;20472;-62
2022/06/14 11:14:33;;;;;;;4.55;2.13;;;;;;;31.37;32.08;95857.44;5083296;28;20028;-61
2022/06/14 11:17:10;;;;;;;4.13;2.22;;;;;;;31.23;32.39;95859.88;5076933;28;20081;-61
2022/06/14 11:19:44;;;;;;;1.63;1.52;;;;;;;31.55;30.89;95850.63;5082123;28;20032;-61
2022/06/14 11:22:29;;;;;;;3.40;1.75;;;;;;;31.11;32.17;95846.53;5084222;28;20020;-61
2022/06/14 11:25:09;;;;;;;5.45;1.75;;;;;;;31.38;31.21;95845.47;5086906;28;20039;-61
2022/06/14 11:27:45;;;;;;;1.88;1.67;;;;;;;31.79;31.90;95843.84;5088327;28;20107;-62
2022/06/14 11:30:29;;;;;;;2.47;1.63;;;;;;;31.62;30.51;95838.69;5090682;28;20051;-61
2022/06/14 11:33:10;;;;;;;2.80;1.83;;;;;;;31.83;30.28;95839.50;5088374;28;20024;-61
2022/06/14 11:36:16;;;;;;;3.58;1.75;;;;;;;31.94;31.28;95834.84;5090742;28;20036;-62
2022/06/14 11:39:12;;;;;;;3.00;1.95;;;;;;;32.13;30.30;95824.16;5091004;28;20032;-62
2022/06/14 11:41:45;;;;;;;1.95;1.50;;;;;;;31.61;30.60;95826.13;5082360;28;20028;-62
2022/06/14 11:44:31;;;;;;;2.00;1.80;;;;;;;31.83;31.15;95817.72;5086845;28;20088;-62
2022/06/14 11:47:09;;;;;;;4.80;1.80;;;;;;;32.27;30.50;95822.50;5080479;28;20036;-64
2022/06/14 11:49:46;;;;;;;1.90;1.80;;;;;;;33.19;29.91;95802.41;5087643;28;20619;-62
2022/06/14 11:52:35;;;;;;;2.17;2.00;;;;;;;32.67;29.38;95810.91;5091014;28;20024;-64
2022/06/14 11:55:18;;;;;;;2.15;1.52;;;;;;;32.49;30.10;95802.28;5090481;28;20081;-63
2022/06/14 11:58:06;;;;;;;2.78;1.77;;;;;;;32.29;30.67;95803.97;5090669;28;20024;-63
2022/06/14 12:01:14;;;;;;;1.80;1.70;;;;;;;32.71;30.22;95798.34;5080519;28;20024;-63
2022/06/14 12:04:15;;;;;;;1.92;1.73;;;;;;;33.18;28.65;95804.31;5087849;28;20032;-63
2022/06/14 12:06:55;;;;;;;1.73;1.60;;;;;;;32.92;28.89;95796.31;5083698;28;20032;-63
2022/06/14 12:09:47;;;;;;;2.92;1.52;;;;;;;32.93;29.83;95795.22;5080275;28;20082;-63
2022/06/14 12:12:28;;;;;;;1.63;1.52;;;;;;;33.40;29.99;95800.34;5081367;28;20540;-63
2022/06/14 12:15:00;;;;;;;1.70;1.60;;;;;;;33.37;29.31;95801.72;5089951;28;20074;-63
2022/06/14 12:17:36;;;;;;;1.60;1.50;;;;;;;33.50;28.46;95797.53;5090563;28;20402;-63
2022/06/14 12:20:07;;;;;;;2.30;1.60;;;;;;;33.92;27.79;95787.00;5089286;28;20028;-63
2022/06/14 12:22:56;;;;;;;3.20;1.83;;;;;;;34.04;27.28;95786.63;5086907;28;20024;-63
2022/06/14 12:28:19;;;;;;;1.50;1.40;;;;;;;33.12;26.75;95784.47;5090961;28;20035;-62
2022/06/14 12:30:48;;;;;;;3.60;1.80;;;;;;;32.95;27.61;95787.59;5089697;28;20108;-62
2022/06/14 12:33:28;;;;;;;2.65;1.80;;;;;;;33.13;27.81;95786.09;5082455;28;20026;-62
2022/06/14 12:36:06;;;;;;;1.73;1.63;;;;;;;32.90;27.64;95784.09;5076515;28;20120;-63
2022/06/14 12:38:37;;;;;;;3.03;1.70;;;;;;;33.67;27.73;95786.19;5086892;28;20483;-62
2022/06/14 12:41:32;;;;;;;1.42;1.33;;;;;;;32.87;28.18;95779.97;5088701;28;20028;-63
2022/06/14 12:44:06;;;;;;;1.70;1.60;;;;;;;33.14;27.91;95784.97;5087269;28;20032;-61